createdAt,value
2022-08-16T00:00:20.170Z,2.35
2022-08-16T00:00:38.421Z,2.38
2022-08-16T00:00:52.217Z,2.35
2022-08-16T00:01:04.341Z,2.22
2022-08-16T00:01:20.367Z,2.28
2022-08-16T00:01:34.170Z,2.30
2022-08-16T00:01:48.701Z,2.05
2022-08-16T00:02:01.747Z,2.00
2022-08-16T00:02:25.114Z,2.13
2022-08-16T00:02:39.407Z,2.15
2022-08-16T00:02:54.331Z,2.30
2022-08-16T00:03:07.501Z,2.40
2022-08-16T00:03:25.615Z,2.38
2022-08-16T00:03:37.953Z,2.08
2022-08-16T00:03:50.051Z,1.98
2022-08-16T00:04:02.085Z,1.90
2022-08-16T00:04:17.994Z,2.22
2022-08-16T00:04:30.172Z,2.15
2022-08-16T00:04:42.211Z,2.08
2022-08-16T00:04:54.583Z,2.13
2022-08-16T00:05:13.759Z,2.30
2022-08-16T00:05:27.594Z,2.20
2022-08-16T00:05:48.602Z,2.10
2022-08-16T00:06:00.966Z,2.10
2022-08-16T00:06:15.425Z,1.90
2022-08-16T00:06:29.280Z,2.10
2022-08-16T00:06:41.548Z,2.30
2022-08-16T00:06:56.258Z,2.33
2022-08-16T00:07:08.218Z,2.30
2022-08-16T00:07:21.955Z,2.10
2022-08-16T00:07:33.991Z,2.05
2022-08-16T00:07:47.143Z,2.00
2022-08-16T00:07:59.629Z,1.95
2022-08-16T00:08:36.650Z,2.15
2022-08-16T00:08:50.008Z,2.05
2022-08-16T00:09:05.234Z,2.00
2022-08-16T00:09:17.581Z,2.20
2022-08-16T00:09:29.590Z,2.20
2022-08-16T00:09:41.833Z,2.10
2022-08-16T00:09:54.102Z,2.20
2022-08-16T00:10:09.426Z,2.28
2022-08-16T00:10:33.911Z,2.28
2022-08-16T00:10:46.877Z,2.20
2022-08-16T00:10:58.807Z,2.30
2022-08-16T00:11:15.270Z,2.20
2022-08-16T00:11:28.004Z,2.03
2022-08-16T00:11:42.032Z,2.03
2022-08-16T00:11:55.511Z,2.10
2022-08-16T00:12:07.670Z,2.30
2022-08-16T00:12:19.634Z,2.30
2022-08-16T00:12:33.555Z,2.50
2022-08-16T00:12:47.049Z,2.45
2022-08-16T00:13:06.718Z,2.10
2022-08-16T00:13:19.311Z,2.25
2022-08-16T00:13:33.694Z,2.42
2022-08-16T00:13:55.496Z,2.38
2022-08-16T00:14:12.715Z,2.10
2022-08-16T00:14:30.390Z,2.00
2022-08-16T00:14:42.969Z,2.30
2022-08-16T00:14:57.307Z,2.30
2022-08-16T00:15:16.912Z,2.13
2022-08-16T00:15:52.026Z,2.00
2022-08-16T00:17:01.776Z,2.30
2022-08-16T00:17:05.595Z,2.22
2022-08-16T00:17:18.299Z,2.20
2022-08-16T00:17:55.904Z,2.38
2022-08-16T00:18:04.748Z,2.40
2022-08-16T00:18:22.339Z,2.42
2022-08-16T00:18:42.103Z,2.28
2022-08-16T00:18:54.044Z,2.25
2022-08-16T00:19:06.431Z,2.28
2022-08-16T00:19:22.648Z,2.20
2022-08-16T00:19:41.063Z,2.13
2022-08-16T00:19:55.046Z,2.50
2022-08-16T00:20:12.333Z,2.38
2022-08-16T00:20:26.024Z,2.22
2022-08-16T00:20:40.691Z,2.33
2022-08-16T00:20:53.074Z,2.30
2022-08-16T00:21:05.228Z,2.40
2022-08-16T00:21:18.076Z,2.40
2022-08-16T00:21:30.466Z,2.30
2022-08-16T00:21:44.317Z,2.20
2022-08-16T00:22:03.185Z,2.35
2022-08-16T00:22:20.724Z,2.40
2022-08-16T00:22:39.225Z,2.40
2022-08-16T00:22:54.981Z,2.30
2022-08-16T00:23:07.662Z,2.38
2022-08-16T00:23:24.463Z,2.50
2022-08-16T00:23:46.702Z,2.40
2022-08-16T00:23:59.273Z,2.20
2022-08-16T00:24:32.285Z,2.20
2022-08-16T00:24:46.729Z,2.40
2022-08-16T00:24:58.932Z,2.40
2022-08-16T00:25:13.993Z,2.28
2022-08-16T00:26:34.592Z,2.58
2022-08-16T00:26:36.229Z,2.40
2022-08-16T00:26:36.739Z,2.25
2022-08-16T00:26:49.570Z,2.45
2022-08-16T00:27:04.195Z,2.47
2022-08-16T00:27:17.518Z,2.40
2022-08-16T00:27:30.854Z,2.30
2022-08-16T00:27:43.299Z,2.30
2022-08-16T00:28:00.396Z,2.35
2022-08-16T00:28:13.766Z,2.47
2022-08-16T00:28:28.623Z,2.50
2022-08-16T00:28:41.887Z,2.38
2022-08-16T00:28:58.123Z,2.13
2022-08-16T00:29:15.763Z,2.30
2022-08-16T00:29:29.934Z,2.40
2022-08-16T00:29:42.367Z,2.30
2022-08-16T00:30:08.989Z,2.40
2022-08-16T00:30:29.017Z,2.25
2022-08-16T00:30:41.404Z,2.20
2022-08-16T00:30:53.829Z,2.28
2022-08-16T00:31:05.866Z,2.30
2022-08-16T00:31:24.277Z,2.28
2022-08-16T00:31:59.623Z,2.30
2022-08-16T00:32:18.137Z,2.40
2022-08-16T00:32:32.733Z,2.30
2022-08-16T00:32:48.246Z,2.33
2022-08-16T00:33:02.215Z,2.42
2022-08-16T00:33:14.397Z,2.45
2022-08-16T00:33:26.370Z,2.40
2022-08-16T00:33:38.340Z,2.30
2022-08-16T00:33:50.471Z,2.45
2022-08-16T00:34:04.496Z,2.45
2022-08-16T00:34:18.427Z,2.40
2022-08-16T00:34:52.452Z,2.45
2022-08-16T00:35:03.807Z,2.30
2022-08-16T00:35:29.313Z,2.40
2022-08-16T00:35:46.859Z,2.47
2022-08-16T00:36:01.846Z,2.28
2022-08-16T00:36:13.872Z,2.30
2022-08-16T00:36:25.890Z,2.20
2022-08-16T00:36:37.833Z,2.28
2022-08-16T00:36:59.355Z,2.42
2022-08-16T00:37:18.328Z,2.20
2022-08-16T00:37:58.820Z,2.20
2022-08-16T00:38:41.349Z,2.40
2022-08-16T00:38:43.259Z,2.35
2022-08-16T00:38:56.229Z,2.35
2022-08-16T00:39:08.434Z,2.40
2022-08-16T00:39:27.637Z,2.50
2022-08-16T00:39:43.010Z,2.40
2022-08-16T00:39:57.997Z,2.35
2022-08-16T00:40:33.411Z,2.40
2022-08-16T00:40:53.915Z,2.35
2022-08-16T00:41:07.284Z,2.30
2022-08-16T00:41:21.088Z,2.30
2022-08-16T00:41:34.455Z,2.33
2022-08-16T00:41:50.511Z,2.20
2022-08-16T00:42:02.775Z,2.20
2022-08-16T00:42:30.144Z,2.38
2022-08-16T00:42:43.601Z,2.30
2022-08-16T00:42:58.267Z,2.25
2022-08-16T00:43:19.390Z,2.30
2022-08-16T00:43:43.520Z,2.42
2022-08-16T00:43:55.721Z,2.60
2022-08-16T00:44:11.100Z,2.53
2022-08-16T00:44:23.493Z,2.50
2022-08-16T00:44:54.505Z,2.35
2022-08-16T00:45:36.716Z,2.60
2022-08-16T00:46:35.509Z,2.60
2022-08-16T00:47:06.043Z,2.58
2022-08-16T00:47:19.734Z,2.50
2022-08-16T00:47:35.317Z,2.40
2022-08-16T00:47:49.851Z,2.40
2022-08-16T00:48:30.495Z,2.55
2022-08-16T00:48:43.989Z,2.40
2022-08-16T00:48:57.593Z,2.40
2022-08-16T00:49:19.574Z,2.45
2022-08-16T00:49:39.461Z,2.50
2022-08-16T00:49:57.060Z,2.58
2022-08-16T00:50:11.768Z,2.55
2022-08-16T00:50:35.920Z,2.50
2022-08-16T00:50:48.580Z,2.50
2022-08-16T00:51:08.022Z,2.50
2022-08-16T00:51:23.619Z,2.38
2022-08-16T00:51:36.079Z,2.40
2022-08-16T00:51:55.101Z,2.60
2022-08-16T00:52:29.511Z,2.50
2022-08-16T00:52:50.298Z,2.50
2022-08-16T00:53:11.453Z,2.50
2022-08-16T00:53:23.699Z,2.50
2022-08-16T00:53:35.790Z,2.40
2022-08-16T00:53:49.503Z,2.45
2022-08-16T00:54:03.160Z,2.50
2022-08-16T00:54:16.844Z,2.60
2022-08-16T00:54:33.823Z,2.55
2022-08-16T00:54:46.082Z,2.65
2022-08-16T00:55:00.461Z,2.53
2022-08-16T00:55:12.751Z,2.45
2022-08-16T00:55:28.206Z,2.58
2022-08-16T00:55:54.209Z,2.50
2022-08-16T00:56:11.292Z,2.28
2022-08-16T00:56:56.570Z,2.50
2022-08-16T00:57:11.567Z,2.58
2022-08-16T00:57:23.921Z,2.55
2022-08-16T00:57:58.926Z,2.58
2022-08-16T00:58:12.910Z,2.45
2022-08-16T00:58:34.581Z,2.40
2022-08-16T00:58:48.358Z,2.50
2022-08-16T00:59:02.234Z,2.40
2022-08-16T00:59:16.930Z,2.15
2022-08-16T00:59:34.301Z,2.42
2022-08-16T00:59:58.681Z,2.65
2022-08-16T01:00:11.900Z,2.50
2022-08-16T01:00:33.489Z,2.42
2022-08-16T01:00:54.379Z,2.58
2022-08-16T01:01:08.782Z,2.50
2022-08-16T01:01:23.152Z,2.40
2022-08-16T01:01:36.098Z,2.38
2022-08-16T01:01:48.089Z,2.50
2022-08-16T01:02:30.720Z,2.42
2022-08-16T01:02:34.026Z,2.40
2022-08-16T01:02:48.731Z,2.30
2022-08-16T01:03:08.138Z,2.50
2022-08-16T01:03:30.382Z,2.60
2022-08-16T01:03:47.504Z,2.42
2022-08-16T01:04:01.763Z,2.60
2022-08-16T01:04:29.245Z,2.70
2022-08-16T01:04:42.882Z,2.38
2022-08-16T01:05:14.841Z,2.40
2022-08-16T01:05:28.758Z,2.45
2022-08-16T01:05:42.208Z,2.53
2022-08-16T01:05:55.183Z,2.60
2022-08-16T01:06:40.126Z,2.55
2022-08-16T01:06:49.231Z,2.40
2022-08-16T01:07:11.539Z,2.45
2022-08-16T01:07:29.850Z,2.47
2022-08-16T01:08:35.455Z,2.50
2022-08-16T01:08:37.000Z,2.30
2022-08-16T01:08:52.446Z,2.55
2022-08-16T01:09:06.761Z,2.60
2022-08-16T01:09:20.780Z,2.50
2022-08-16T01:09:42.979Z,2.58
2022-08-16T01:09:55.394Z,2.63
2022-08-16T01:10:15.820Z,2.45
2022-08-16T01:10:33.589Z,2.47
2022-08-16T01:10:46.349Z,2.55
2022-08-16T01:11:00.065Z,2.50
2022-08-16T01:11:14.668Z,2.50
2022-08-16T01:11:29.425Z,2.60
2022-08-16T01:11:51.750Z,2.50
2022-08-16T01:12:10.660Z,2.20
2022-08-16T01:12:26.680Z,2.28
2022-08-16T01:12:38.852Z,2.45
2022-08-16T01:12:51.398Z,2.40
2022-08-16T01:13:12.400Z,2.58
2022-08-16T01:13:30.966Z,2.40
2022-08-16T01:13:44.303Z,2.30
2022-08-16T01:14:04.510Z,2.45
2022-08-16T01:14:29.847Z,2.40
2022-08-16T01:14:53.288Z,2.35
2022-08-16T01:15:06.070Z,2.42
2022-08-16T01:15:20.415Z,2.53
2022-08-16T01:15:43.091Z,2.45
2022-08-16T01:16:05.848Z,2.30
2022-08-16T01:16:26.659Z,2.40
2022-08-16T01:16:42.802Z,2.63
2022-08-16T01:16:56.850Z,2.45
2022-08-16T01:17:09.826Z,2.22
2022-08-16T01:17:24.348Z,2.42
2022-08-16T01:17:37.537Z,2.50
2022-08-16T01:17:55.778Z,2.58
2022-08-16T01:18:39.918Z,2.55
2022-08-16T01:19:09.701Z,2.53
2022-08-16T01:19:32.650Z,2.20
2022-08-16T01:19:52.392Z,2.50
2022-08-16T01:20:23.813Z,2.30
2022-08-16T01:20:43.599Z,2.50
2022-08-16T01:21:12.204Z,2.30
2022-08-16T01:21:47.894Z,2.40
2022-08-16T01:22:48.193Z,2.30
2022-08-16T01:22:52.469Z,2.70
2022-08-16T01:23:58.628Z,2.47
2022-08-16T01:24:44.471Z,2.58
2022-08-16T01:24:57.655Z,2.50
2022-08-16T01:25:24.059Z,2.50
2022-08-16T01:26:00.303Z,2.70
2022-08-16T01:26:34.567Z,2.50
2022-08-16T01:26:50.175Z,2.38
2022-08-16T01:27:34.738Z,2.25
2022-08-16T01:27:54.588Z,2.40
2022-08-16T01:28:20.128Z,2.40
2022-08-16T01:28:35.793Z,2.40
2022-08-16T01:28:51.520Z,2.50
2022-08-16T01:29:09.915Z,2.60
2022-08-16T01:29:56.636Z,2.65
2022-08-16T01:30:19.406Z,2.58
2022-08-16T01:30:36.756Z,2.42
2022-08-16T01:30:58.281Z,2.55
2022-08-16T01:31:11.363Z,2.38
2022-08-16T01:31:30.983Z,2.30
2022-08-16T01:31:43.506Z,2.40
2022-08-16T01:31:55.576Z,2.40
2022-08-16T01:32:09.854Z,2.30
2022-08-16T01:32:33.554Z,2.33
2022-08-16T01:32:47.061Z,2.85
2022-08-16T01:33:15.724Z,2.40
2022-08-16T01:33:33.354Z,2.50
2022-08-16T01:33:49.736Z,2.50
2022-08-16T01:34:02.494Z,2.55
2022-08-16T01:34:24.999Z,2.70
2022-08-16T01:34:47.138Z,2.60
2022-08-16T01:34:59.666Z,2.78
2022-08-16T01:35:18.149Z,2.88
2022-08-16T01:35:39.363Z,2.90
2022-08-16T01:35:54.091Z,2.70
2022-08-16T01:36:11.914Z,2.53
2022-08-16T01:36:26.485Z,2.50
2022-08-16T01:36:38.760Z,2.50
2022-08-16T01:36:58.593Z,2.58
2022-08-16T01:37:13.174Z,2.40
2022-08-16T01:37:35.731Z,2.53
2022-08-16T01:37:54.676Z,2.50
2022-08-16T01:38:19.596Z,2.78
2022-08-16T01:38:38.001Z,2.58
2022-08-16T01:38:56.936Z,2.60
2022-08-16T01:39:15.323Z,2.50
2022-08-16T01:39:27.341Z,2.50
2022-08-16T01:39:39.910Z,2.50
2022-08-16T01:39:55.007Z,2.40
2022-08-16T01:40:07.832Z,2.42
2022-08-16T01:40:27.250Z,2.50
2022-08-16T01:40:39.218Z,2.50
2022-08-16T01:40:56.780Z,2.60
2022-08-16T01:41:30.491Z,2.67
2022-08-16T01:41:44.491Z,2.47
2022-08-16T01:41:57.407Z,2.58
2022-08-16T01:42:12.967Z,2.55
2022-08-16T01:42:25.382Z,2.70
2022-08-16T01:42:37.530Z,2.70
2022-08-16T01:42:55.874Z,2.38
2022-08-16T01:43:08.234Z,2.20
2022-08-16T01:43:23.606Z,2.30
2022-08-16T01:43:38.297Z,2.35
2022-08-16T01:43:53.947Z,2.50
2022-08-16T01:44:06.701Z,2.60
2022-08-16T01:44:18.820Z,2.60
2022-08-16T01:44:37.527Z,2.50
2022-08-16T01:44:50.242Z,2.60
2022-08-16T01:45:05.542Z,2.70
2022-08-16T01:45:19.646Z,2.45
2022-08-16T01:45:40.777Z,2.45
2022-08-16T01:45:57.706Z,2.60
2022-08-16T01:46:44.090Z,2.65
2022-08-16T01:46:57.505Z,2.35
2022-08-16T01:47:10.473Z,2.45
2022-08-16T01:47:23.579Z,2.67
2022-08-16T01:47:38.835Z,2.60
2022-08-16T01:48:01.981Z,2.40
2022-08-16T01:48:33.002Z,2.67
2022-08-16T01:48:48.345Z,2.50
2022-08-16T01:49:06.626Z,2.60
2022-08-16T01:49:43.086Z,2.50
2022-08-16T01:50:41.939Z,2.60
2022-08-16T01:50:42.631Z,2.40
2022-08-16T01:51:09.281Z,2.50
2022-08-16T01:51:29.952Z,2.58
2022-08-16T01:51:44.114Z,2.60
2022-08-16T01:52:28.271Z,2.50
2022-08-16T01:52:46.552Z,2.42
2022-08-16T01:52:58.726Z,2.58
2022-08-16T01:53:11.036Z,2.80
2022-08-16T01:53:23.941Z,2.70
2022-08-16T01:53:36.313Z,2.70
2022-08-16T01:53:55.372Z,2.70
2022-08-16T01:54:08.134Z,2.65
2022-08-16T01:54:31.143Z,2.50
2022-08-16T01:54:43.461Z,2.60
2022-08-16T01:54:57.702Z,2.65
2022-08-16T01:55:10.455Z,2.53
2022-08-16T01:55:24.302Z,2.50
2022-08-16T01:55:36.386Z,2.70
2022-08-16T01:55:54.098Z,2.70
2022-08-16T01:56:06.427Z,2.60
2022-08-16T01:56:23.474Z,2.50
2022-08-16T01:56:37.683Z,2.60
2022-08-16T01:56:49.630Z,2.83
2022-08-16T01:57:03.805Z,3.00
2022-08-16T01:57:16.482Z,2.70
2022-08-16T01:57:35.705Z,3.00
2022-08-16T01:57:53.557Z,3.00
2022-08-16T01:58:10.856Z,2.65
2022-08-16T01:58:25.532Z,2.70
2022-08-16T01:58:37.612Z,2.90
2022-08-16T01:59:02.103Z,2.78
2022-08-16T01:59:16.981Z,2.63
2022-08-16T01:59:33.557Z,2.60
2022-08-16T01:59:46.078Z,2.70
2022-08-16T01:59:59.478Z,2.80
2022-08-16T02:00:19.441Z,2.65
2022-08-16T02:00:31.812Z,2.50
2022-08-16T02:00:44.859Z,2.60
2022-08-16T02:00:59.039Z,2.60
2022-08-16T02:01:11.350Z,2.70
2022-08-16T02:01:23.585Z,2.70
2022-08-16T02:01:38.605Z,2.65
2022-08-16T02:01:59.617Z,2.53
2022-08-16T02:02:27.473Z,2.30
2022-08-16T02:02:42.605Z,2.47
2022-08-16T02:02:54.731Z,2.67
2022-08-16T02:03:07.466Z,2.80
2022-08-16T02:03:26.682Z,2.70
2022-08-16T02:03:40.055Z,2.67
2022-08-16T02:03:52.095Z,2.80
2022-08-16T02:04:10.987Z,2.65
2022-08-16T02:04:49.709Z,2.38
2022-08-16T02:05:00.034Z,2.47
2022-08-16T02:05:13.703Z,2.60
2022-08-16T02:05:25.924Z,2.60
2022-08-16T02:05:46.653Z,2.53
2022-08-16T02:06:04.286Z,2.67
2022-08-16T02:06:33.775Z,3.00
2022-08-16T02:06:47.183Z,2.35
2022-08-16T02:07:00.484Z,2.60
2022-08-16T02:07:13.217Z,2.60
2022-08-16T02:07:25.516Z,2.40
2022-08-16T02:07:39.024Z,2.50
2022-08-16T02:07:57.031Z,2.45
2022-08-16T02:08:09.567Z,2.42
2022-08-16T02:08:42.060Z,2.60
2022-08-16T02:08:55.075Z,2.63
2022-08-16T02:09:11.759Z,2.53
2022-08-16T02:09:25.481Z,2.53
2022-08-16T02:09:57.355Z,2.38
2022-08-16T02:10:11.241Z,2.50
2022-08-16T02:10:23.983Z,2.60
2022-08-16T02:10:38.331Z,2.60
2022-08-16T02:10:54.555Z,2.67
2022-08-16T02:11:08.640Z,2.70
2022-08-16T02:11:22.527Z,2.78
2022-08-16T02:11:47.809Z,2.65
2022-08-16T02:12:40.115Z,2.47
2022-08-16T02:12:52.589Z,2.70
2022-08-16T02:13:08.038Z,2.80
2022-08-16T02:13:21.531Z,2.70
2022-08-16T02:13:41.635Z,2.80
2022-08-16T02:13:55.237Z,2.83
2022-08-16T02:14:07.257Z,2.90
2022-08-16T02:14:30.956Z,2.92
2022-08-16T02:14:43.323Z,2.80
2022-08-16T02:14:56.119Z,2.80
2022-08-16T02:15:09.761Z,2.58
2022-08-16T02:15:25.931Z,2.58
2022-08-16T02:15:43.041Z,2.55
2022-08-16T02:15:55.970Z,2.75
2022-08-16T02:16:18.758Z,2.60
2022-08-16T02:16:31.041Z,2.63
2022-08-16T02:16:44.586Z,2.65
2022-08-16T02:17:01.559Z,2.63
2022-08-16T02:17:14.571Z,2.60
2022-08-16T02:17:28.411Z,2.50
2022-08-16T02:17:40.684Z,2.50
2022-08-16T02:17:57.379Z,2.55
2022-08-16T02:18:12.809Z,2.60
2022-08-16T02:18:24.927Z,2.55
2022-08-16T02:18:38.147Z,2.50
2022-08-16T02:18:53.119Z,2.60
2022-08-16T02:19:05.350Z,2.60
2022-08-16T02:19:59.561Z,2.70
2022-08-16T02:20:04.059Z,2.65
2022-08-16T02:20:26.395Z,2.50
2022-08-16T02:20:42.550Z,2.55
2022-08-16T02:20:57.322Z,2.80
2022-08-16T02:21:13.326Z,2.63
2022-08-16T02:21:31.623Z,2.60
2022-08-16T02:22:08.688Z,2.67
2022-08-16T02:22:34.324Z,2.78
2022-08-16T02:22:49.106Z,2.78
2022-08-16T02:23:01.570Z,2.72
2022-08-16T02:23:14.249Z,2.65
2022-08-16T02:23:29.648Z,2.60
2022-08-16T02:23:41.960Z,2.70
2022-08-16T02:23:55.829Z,2.80
2022-08-16T02:24:32.442Z,2.80
2022-08-16T02:24:42.248Z,2.83
2022-08-16T02:24:57.957Z,2.83
2022-08-16T02:25:14.748Z,2.80
2022-08-16T02:25:50.914Z,2.80
2022-08-16T02:26:00.250Z,2.60
2022-08-16T02:26:16.989Z,2.60
2022-08-16T02:26:34.379Z,2.58
2022-08-16T02:26:46.463Z,2.58
2022-08-16T02:27:02.180Z,2.60
2022-08-16T02:27:17.723Z,2.70
2022-08-16T02:27:31.012Z,2.80
2022-08-16T02:27:50.873Z,2.83
2022-08-16T02:28:03.706Z,2.67
2022-08-16T02:28:19.125Z,2.58
2022-08-16T02:28:32.834Z,2.40
2022-08-16T02:28:47.218Z,2.38
2022-08-16T02:28:59.397Z,2.42
2022-08-16T02:29:14.040Z,2.50
2022-08-16T02:29:32.144Z,2.60
2022-08-16T02:29:44.353Z,2.60
2022-08-16T02:30:05.314Z,2.60
2022-08-16T02:30:37.403Z,2.60
2022-08-16T02:30:56.743Z,2.70
2022-08-16T02:31:12.404Z,2.75
2022-08-16T02:32:04.069Z,2.80
2022-08-16T02:32:04.571Z,2.78
2022-08-16T02:32:49.932Z,3.03
2022-08-16T02:33:00.660Z,2.75
2022-08-16T02:33:15.509Z,2.75
2022-08-16T02:33:43.432Z,3.10
2022-08-16T02:33:56.719Z,2.95
2022-08-16T02:34:08.659Z,2.97
2022-08-16T02:34:34.713Z,2.90
2022-08-16T02:34:52.592Z,2.70
2022-08-16T02:35:09.193Z,2.90
2022-08-16T02:35:23.707Z,3.00
2022-08-16T02:35:54.434Z,2.85
2022-08-16T02:36:14.111Z,2.78
2022-08-16T02:36:48.033Z,2.83
2022-08-16T02:36:58.611Z,2.80
2022-08-16T02:37:11.284Z,2.83
2022-08-16T02:37:23.301Z,2.70
2022-08-16T02:37:51.556Z,2.67
2022-08-16T02:38:08.833Z,2.97
2022-08-16T02:38:21.226Z,3.00
2022-08-16T02:38:33.547Z,2.92
2022-08-16T02:38:45.467Z,2.90
2022-08-16T02:38:58.315Z,2.80
2022-08-16T02:39:12.791Z,2.75
2022-08-16T02:39:27.002Z,2.53
2022-08-16T02:39:42.234Z,2.80
2022-08-16T02:39:54.433Z,2.90
2022-08-16T02:40:07.998Z,2.72
2022-08-16T02:40:22.413Z,2.50
2022-08-16T02:40:34.347Z,2.65
2022-08-16T02:40:46.376Z,2.83
2022-08-16T02:40:59.465Z,2.97
2022-08-16T02:41:12.138Z,2.67
2022-08-16T02:41:24.562Z,2.53
2022-08-16T02:41:41.386Z,2.67
2022-08-16T02:41:53.676Z,2.60
2022-08-16T02:42:06.200Z,2.58
2022-08-16T02:42:19.408Z,2.70
2022-08-16T02:42:31.791Z,2.75
2022-08-16T02:42:45.665Z,2.67
2022-08-16T02:43:01.709Z,2.50
2022-08-16T02:43:15.031Z,2.47
2022-08-16T02:43:33.129Z,2.60
2022-08-16T02:43:45.627Z,2.60
2022-08-16T02:43:58.946Z,2.50
2022-08-16T02:44:13.875Z,2.50
2022-08-16T02:44:26.796Z,2.78
2022-08-16T02:44:39.091Z,2.88
2022-08-16T02:44:54.390Z,2.78
2022-08-16T02:45:06.841Z,2.60
2022-08-16T02:45:27.830Z,2.50
2022-08-16T02:45:41.177Z,2.70
2022-08-16T02:45:53.379Z,2.80
2022-08-16T02:46:07.622Z,2.63
2022-08-16T02:46:20.072Z,2.60
2022-08-16T02:46:50.360Z,2.55
2022-08-16T02:47:02.758Z,2.50
2022-08-16T02:47:25.044Z,2.40
2022-08-16T02:48:00.468Z,2.63
2022-08-16T02:48:30.312Z,2.45
2022-08-16T02:48:47.438Z,2.47
2022-08-16T02:49:01.980Z,2.72
2022-08-16T02:49:14.341Z,2.70
2022-08-16T02:49:58.224Z,2.70
2022-08-16T02:50:54.152Z,2.53
2022-08-16T02:50:54.531Z,2.60
2022-08-16T02:51:11.417Z,2.58
2022-08-16T02:51:23.792Z,2.50
2022-08-16T02:51:38.005Z,2.65
2022-08-16T02:51:53.099Z,2.80
2022-08-16T02:52:05.114Z,2.63
2022-08-16T02:52:29.152Z,2.60
2022-08-16T02:52:43.749Z,2.50
2022-08-16T02:52:55.961Z,2.60
2022-08-16T02:53:08.095Z,2.50
2022-08-16T02:53:23.290Z,2.50
2022-08-16T02:53:37.443Z,2.50
2022-08-16T02:53:49.736Z,2.60
2022-08-16T02:54:01.744Z,2.70
2022-08-16T02:54:16.875Z,2.80
2022-08-16T02:54:29.093Z,2.83
2022-08-16T02:54:41.257Z,2.70
2022-08-16T02:54:55.525Z,2.55
2022-08-16T02:55:08.312Z,2.40
2022-08-16T02:55:40.725Z,2.45
2022-08-16T02:55:53.826Z,3.00
2022-08-16T02:56:06.401Z,2.80
2022-08-16T02:56:22.743Z,2.50
2022-08-16T02:56:35.752Z,2.60
2022-08-16T02:56:49.086Z,2.78
2022-08-16T02:57:01.658Z,2.80
2022-08-16T02:57:13.774Z,2.72
2022-08-16T02:57:26.054Z,2.80
2022-08-16T02:57:42.367Z,2.88
2022-08-16T02:58:05.951Z,2.70
2022-08-16T02:58:20.158Z,2.80
2022-08-16T02:58:37.721Z,2.90
2022-08-16T02:58:52.659Z,3.00
2022-08-16T02:59:11.761Z,2.90
2022-08-16T02:59:27.401Z,2.50
2022-08-16T02:59:51.848Z,2.70
2022-08-16T03:00:33.548Z,2.78
2022-08-16T03:00:45.624Z,2.92
2022-08-16T03:01:02.400Z,3.10
2022-08-16T03:01:25.389Z,2.90
2022-08-16T03:01:49.702Z,3.13
2022-08-16T03:02:01.784Z,3.00
2022-08-16T03:02:20.872Z,2.90
2022-08-16T03:02:45.242Z,2.80
2022-08-16T03:02:57.622Z,2.80
2022-08-16T03:03:11.238Z,2.72
2022-08-16T03:04:28.909Z,2.90
2022-08-16T03:04:41.351Z,3.00
2022-08-16T03:04:50.601Z,3.05
2022-08-16T03:05:05.349Z,2.63
2022-08-16T03:05:17.320Z,2.60
2022-08-16T03:05:31.045Z,2.70
2022-08-16T03:05:43.808Z,3.08
2022-08-16T03:06:01.914Z,2.83
2022-08-16T03:06:36.389Z,2.67
2022-08-16T03:06:46.376Z,2.95
2022-08-16T03:06:58.375Z,2.75
2022-08-16T03:07:11.501Z,2.80
2022-08-16T03:07:27.632Z,2.83
2022-08-16T03:07:40.820Z,3.05
2022-08-16T03:08:03.098Z,3.10
2022-08-16T03:08:52.208Z,2.88
2022-08-16T03:08:52.677Z,3.10
2022-08-16T03:09:05.416Z,2.90
2022-08-16T03:09:18.023Z,2.83
2022-08-16T03:09:33.255Z,2.70
2022-08-16T03:09:45.883Z,2.80
2022-08-16T03:10:00.725Z,2.90
2022-08-16T03:10:14.016Z,3.00
2022-08-16T03:10:33.227Z,2.97
2022-08-16T03:10:48.498Z,3.08
2022-08-16T03:11:00.759Z,3.05
2022-08-16T03:11:17.875Z,3.03
2022-08-16T03:11:35.377Z,3.00
2022-08-16T03:11:47.634Z,2.67
2022-08-16T03:12:00.989Z,2.72
2022-08-16T03:12:16.284Z,3.00
2022-08-16T03:12:30.372Z,3.00
2022-08-16T03:12:56.365Z,2.90
2022-08-16T03:13:12.551Z,2.90
2022-08-16T03:13:24.882Z,2.83
2022-08-16T03:13:40.347Z,2.70
2022-08-16T03:13:56.588Z,2.80
2022-08-16T03:14:08.942Z,3.00
2022-08-16T03:14:24.797Z,3.03
2022-08-16T03:14:37.063Z,2.90
2022-08-16T03:14:50.231Z,2.97
2022-08-16T03:15:02.183Z,3.03
2022-08-16T03:15:14.461Z,2.90
2022-08-16T03:15:30.100Z,3.20
2022-08-16T03:15:42.255Z,3.40
2022-08-16T03:15:54.850Z,3.40
2022-08-16T03:16:07.650Z,3.22
2022-08-16T03:16:58.873Z,3.05
2022-08-16T03:17:12.131Z,2.97
2022-08-16T03:17:24.126Z,2.90
2022-08-16T03:17:53.350Z,2.90
2022-08-16T03:18:12.446Z,3.00
2022-08-16T03:18:40.352Z,3.05
2022-08-16T03:18:53.496Z,3.30
2022-08-16T03:19:06.755Z,3.08
2022-08-16T03:19:19.743Z,2.85
2022-08-16T03:19:46.848Z,2.80
2022-08-16T03:20:02.826Z,2.78
2022-08-16T03:20:16.277Z,2.67
2022-08-16T03:20:32.278Z,2.70
2022-08-16T03:20:46.501Z,2.78
2022-08-16T03:21:10.142Z,3.00
2022-08-16T03:21:25.356Z,3.17
2022-08-16T03:21:38.732Z,3.10
2022-08-16T03:21:51.893Z,2.85
2022-08-16T03:22:04.093Z,2.75
2022-08-16T03:22:19.403Z,2.88
2022-08-16T03:22:40.149Z,2.90
2022-08-16T03:22:57.352Z,3.10
2022-08-16T03:23:10.374Z,3.10
2022-08-16T03:23:27.213Z,3.00
2022-08-16T03:23:48.246Z,3.00
2022-08-16T03:24:00.238Z,3.00
2022-08-16T03:24:28.550Z,3.00
2022-08-16T03:24:41.676Z,3.20
2022-08-16T03:25:00.906Z,3.00
2022-08-16T03:25:15.532Z,2.83
2022-08-16T03:25:43.931Z,2.70
2022-08-16T03:25:56.394Z,2.88
2022-08-16T03:26:09.310Z,2.80
2022-08-16T03:26:21.330Z,2.70
2022-08-16T03:26:36.463Z,2.67
2022-08-16T03:26:48.537Z,2.65
2022-08-16T03:27:03.803Z,2.72
2022-08-16T03:27:19.051Z,2.60
2022-08-16T03:27:32.907Z,2.80
2022-08-16T03:27:45.326Z,3.03
2022-08-16T03:27:59.885Z,3.00
2022-08-16T03:28:11.990Z,2.95
2022-08-16T03:28:25.189Z,3.20
2022-08-16T03:28:37.652Z,2.97
2022-08-16T03:28:50.196Z,2.85
2022-08-16T03:29:02.463Z,2.70
2022-08-16T03:29:14.414Z,2.80
2022-08-16T03:29:30.349Z,3.03
2022-08-16T03:29:42.750Z,2.95
2022-08-16T03:30:16.192Z,2.78
2022-08-16T03:30:32.051Z,2.88
2022-08-16T03:30:44.157Z,3.03
2022-08-16T03:30:56.139Z,3.08
2022-08-16T03:31:08.660Z,3.03
2022-08-16T03:31:20.612Z,2.80
2022-08-16T03:31:34.670Z,2.70
2022-08-16T03:31:52.762Z,2.70
2022-08-16T03:32:05.398Z,2.70
2022-08-16T03:32:17.449Z,2.72
2022-08-16T03:32:31.803Z,2.90
2022-08-16T03:32:47.298Z,3.00
2022-08-16T03:32:59.768Z,3.03
2022-08-16T03:33:12.325Z,3.10
2022-08-16T03:33:24.354Z,3.00
2022-08-16T03:33:36.325Z,2.80
2022-08-16T03:33:48.238Z,2.70
2022-08-16T03:34:04.646Z,2.78
2022-08-16T03:34:16.728Z,2.83
2022-08-16T03:34:30.967Z,2.83
2022-08-16T03:34:42.887Z,2.80
2022-08-16T03:35:02.081Z,2.90
2022-08-16T03:35:17.790Z,2.88
2022-08-16T03:35:34.122Z,2.90
2022-08-16T03:35:46.616Z,2.97
2022-08-16T03:36:30.261Z,3.00
2022-08-16T03:36:32.744Z,3.08
2022-08-16T03:36:44.926Z,2.92
2022-08-16T03:36:57.887Z,3.00
2022-08-16T03:37:09.822Z,3.10
2022-08-16T03:37:21.839Z,3.10
2022-08-16T03:38:01.573Z,3.05
2022-08-16T03:38:34.055Z,2.95
2022-08-16T03:38:43.623Z,2.90
2022-08-16T03:38:56.325Z,3.13
2022-08-16T03:39:10.729Z,3.05
2022-08-16T03:39:27.748Z,2.90
2022-08-16T03:39:43.573Z,2.90
2022-08-16T03:39:56.755Z,2.78
2022-08-16T03:40:30.602Z,2.95
2022-08-16T03:40:45.535Z,3.33
2022-08-16T03:40:58.509Z,3.00
2022-08-16T03:41:24.493Z,3.00
2022-08-16T03:41:50.313Z,2.95
2022-08-16T03:42:03.715Z,2.90
2022-08-16T03:42:23.222Z,2.90
2022-08-16T03:42:35.579Z,3.25
2022-08-16T03:43:20.792Z,3.80
2022-08-16T03:43:51.255Z,2.97
2022-08-16T03:44:07.240Z,3.00
2022-08-16T03:44:44.615Z,2.97
2022-08-16T03:45:03.310Z,3.05
2022-08-16T03:45:15.686Z,3.03
2022-08-16T03:45:31.234Z,3.17
2022-08-16T03:45:43.762Z,3.20
2022-08-16T03:45:57.998Z,3.15
2022-08-16T03:46:10.651Z,3.03
2022-08-16T03:46:47.570Z,2.90
2022-08-16T03:46:55.748Z,2.88
2022-08-16T03:47:10.621Z,2.90
2022-08-16T03:47:22.590Z,3.00
2022-08-16T03:47:35.639Z,2.90
2022-08-16T03:47:47.879Z,2.80
2022-08-16T03:48:15.101Z,3.25
2022-08-16T03:48:39.645Z,3.20
2022-08-16T03:48:53.686Z,3.00
2022-08-16T03:49:06.870Z,3.20
2022-08-16T03:49:20.140Z,3.13
2022-08-16T03:49:37.089Z,3.00
2022-08-16T03:49:51.815Z,3.00
2022-08-16T03:50:26.068Z,3.00
2022-08-16T03:50:38.911Z,3.00
2022-08-16T03:51:00.036Z,2.83
2022-08-16T03:51:12.934Z,2.80
2022-08-16T03:51:25.553Z,2.83
2022-08-16T03:51:39.359Z,2.70
2022-08-16T03:51:52.041Z,2.80
2022-08-16T03:52:04.661Z,2.90
2022-08-16T03:52:16.621Z,2.90
2022-08-16T03:52:32.055Z,3.00
2022-08-16T03:52:44.471Z,2.97
2022-08-16T03:53:04.257Z,2.90
2022-08-16T03:53:17.835Z,2.97
2022-08-16T03:53:38.012Z,2.85
2022-08-16T03:54:00.840Z,2.95
2022-08-16T03:54:13.568Z,2.83
2022-08-16T03:54:25.484Z,3.10
2022-08-16T03:54:53.516Z,3.25
2022-08-16T03:55:14.784Z,2.95
2022-08-16T03:55:37.108Z,3.05